sensor_id;sensor_type;location;lat;lon;timestamp;temperature;humidity
15959;DHT22;8078;47.822;9.402;2023-05-20T00:00:29;9.80;99.90
15959;DHT22;8078;47.822;9.402;2023-05-20T00:02:55;9.80;99.90
15959;DHT22;8078;47.822;9.402;2023-05-20T00:05:22;9.80;99.90
15959;DHT22;8078;47.822;9.402;2023-05-20T00:07:48;9.80;99.90
15959;DHT22;8078;47.822;9.402;2023-05-20T00:10:13;9.80;99.90
15959;DHT22;8078;47.822;9.402;2023-05-20T00:12:39;9.80;99.90
15959;DHT22;8078;47.822;9.402;2023-05-20T00:15:05;9.80;99.90
15959;DHT22;8078;47.822;9.402;2023-05-20T00:17:31;9.80;99.90
15959;DHT22;8078;47.822;9.402;2023-05-20T00:19:56;9.70;99.90
15959;DHT22;8078;47.822;9.402;2023-05-20T00:22:23;9.70;99.90
15959;DHT22;8078;47.822;9.402;2023-05-20T00:24:49;9.70;99.90
15959;DHT22;8078;47.822;9.402;2023-05-20T00:27:14;9.60;99.90
15959;DHT22;8078;47.822;9.402;2023-05-20T00:29:40;9.60;99.90
15959;DHT22;8078;47.822;9.402;2023-05-20T00:32:06;9.60;99.90
15959;DHT22;8078;47.822;9.402;2023-05-20T00:34:31;9.70;99.90
15959;DHT22;8078;47.822;9.402;2023-05-20T00:36:57;9.70;99.90
15959;DHT22;8078;47.822;9.402;2023-05-20T00:39:23;9.70;99.90
15959;DHT22;8078;47.822;9.402;2023-05-20T00:41:48;9.70;99.90
15959;DHT22;8078;47.822;9.402;2023-05-20T00:44:14;9.70;99.90
15959;DHT22;8078;47.822;9.402;2023-05-20T00:46:40;9.70;99.90
15959;DHT22;8078;47.822;9.402;2023-05-20T00:49:05;9.60;99.90
15959;DHT22;8078;47.822;9.402;2023-05-20T00:51:31;9.60;99.90
15959;DHT22;8078;47.822;9.402;2023-05-20T00:53:57;9.70;99.90
15959;DHT22;8078;47.822;9.402;2023-05-20T00:56:23;9.60;99.90
15959;DHT22;8078;47.822;9.402;2023-05-20T00:58:50;9.60;99.90
15959;DHT22;8078;47.822;9.402;2023-05-20T01:01:15;9.60;99.90
15959;DHT22;8078;47.822;9.402;2023-05-20T01:03:41;9.60;99.90
15959;DHT22;8078;47.822;9.402;2023-05-20T01:06:06;9.60;99.90
15959;DHT22;8078;47.822;9.402;2023-05-20T01:08:32;9.60;99.90
15959;DHT22;8078;47.822;9.402;2023-05-20T01:11:07;9.60;99.90
15959;DHT22;8078;47.822;9.402;2023-05-20T01:13:46;9.60;99.90
15959;DHT22;8078;47.822;9.402;2023-05-20T01:16:16;9.60;99.90
15959;DHT22;8078;47.822;9.402;2023-05-20T01:18:42;9.50;99.90
15959;DHT22;8078;47.822;9.402;2023-05-20T01:21:11;9.50;99.90
15959;DHT22;8078;47.822;9.402;2023-05-20T01:23:38;9.50;99.90
15959;DHT22;8078;47.822;9.402;2023-05-20T01:26:04;9.50;99.90
15959;DHT22;8078;47.822;9.402;2023-05-20T01:28:34;9.50;99.90
15959;DHT22;8078;47.822;9.402;2023-05-20T01:31:01;9.50;99.90
15959;DHT22;8078;47.822;9.402;2023-05-20T01:33:28;9.40;99.90
15959;DHT22;8078;47.822;9.402;2023-05-20T01:35:56;9.40;99.90
15959;DHT22;8078;47.822;9.402;2023-05-20T01:38:22;9.50;99.90
15959;DHT22;8078;47.822;9.402;2023-05-20T01:40:49;9.40;99.90
15959;DHT22;8078;47.822;9.402;2023-05-20T01:43:16;9.50;99.90
15959;DHT22;8078;47.822;9.402;2023-05-20T01:45:43;9.50;99.90
15959;DHT22;8078;47.822;9.402;2023-05-20T01:48:10;9.50;99.90
15959;DHT22;8078;47.822;9.402;2023-05-20T01:50:36;9.50;99.90
15959;DHT22;8078;47.822;9.402;2023-05-20T01:53:02;9.40;99.90
15959;DHT22;8078;47.822;9.402;2023-05-20T01:55:27;9.40;99.90
15959;DHT22;8078;47.822;9.402;2023-05-20T01:57:54;9.40;99.90
15959;DHT22;8078;47.822;9.402;2023-05-20T02:00:20;9.40;99.90
15959;DHT22;8078;47.822;9.402;2023-05-20T02:02:46;9.40;99.90
15959;DHT22;8078;47.822;9.402;2023-05-20T02:05:11;9.40;99.90
15959;DHT22;8078;47.822;9.402;2023-05-20T02:07:37;9.30;99.90
15959;DHT22;8078;47.822;9.402;2023-05-20T02:10:03;9.30;99.90
15959;DHT22;8078;47.822;9.402;2023-05-20T02:12:28;9.30;99.90
15959;DHT22;8078;47.822;9.402;2023-05-20T02:14:54;9.30;99.90
15959;DHT22;8078;47.822;9.402;2023-05-20T02:17:20;9.30;99.90
15959;DHT22;8078;47.822;9.402;2023-05-20T02:19:45;9.30;99.90
15959;DHT22;8078;47.822;9.402;2023-05-20T02:22:12;9.30;99.90
15959;DHT22;8078;47.822;9.402;2023-05-20T02:24:37;9.30;99.90
15959;DHT22;8078;47.822;9.402;2023-05-20T02:27:03;9.30;99.90
15959;DHT22;8078;47.822;9.402;2023-05-20T02:29:30;9.20;99.90
15959;DHT22;8078;47.822;9.402;2023-05-20T02:31:57;9.20;99.90
15959;DHT22;8078;47.822;9.402;2023-05-20T02:34:22;9.20;99.90
15959;DHT22;8078;47.822;9.402;2023-05-20T02:36:50;9.20;99.90
15959;DHT22;8078;47.822;9.402;2023-05-20T02:39:16;9.20;99.90
15959;DHT22;8078;47.822;9.402;2023-05-20T02:41:41;9.20;99.90
15959;DHT22;8078;47.822;9.402;2023-05-20T02:44:07;9.20;99.90
15959;DHT22;8078;47.822;9.402;2023-05-20T02:46:33;9.20;99.90
15959;DHT22;8078;47.822;9.402;2023-05-20T02:48:58;9.20;99.90
15959;DHT22;8078;47.822;9.402;2023-05-20T02:51:24;9.20;99.90
15959;DHT22;8078;47.822;9.402;2023-05-20T02:53:50;9.20;99.90
15959;DHT22;8078;47.822;9.402;2023-05-20T02:56:15;9.10;99.90
15959;DHT22;8078;47.822;9.402;2023-05-20T02:58:46;9.10;99.90
15959;DHT22;8078;47.822;9.402;2023-05-20T03:01:11;9.00;99.90
15959;DHT22;8078;47.822;9.402;2023-05-20T03:03:37;9.00;99.90
15959;DHT22;8078;47.822;9.402;2023-05-20T03:06:02;8.90;99.90
15959;DHT22;8078;47.822;9.402;2023-05-20T03:08:28;8.90;99.90
15959;DHT22;8078;47.822;9.402;2023-05-20T03:10:54;9.00;99.90
15959;DHT22;8078;47.822;9.402;2023-05-20T03:13:19;9.00;99.90
15959;DHT22;8078;47.822;9.402;2023-05-20T03:15:45;9.00;99.90
15959;DHT22;8078;47.822;9.402;2023-05-20T03:18:11;9.10;99.90
15959;DHT22;8078;47.822;9.402;2023-05-20T03:20:39;9.10;99.90
15959;DHT22;8078;47.822;9.402;2023-05-20T03:23:06;9.20;99.90
15959;DHT22;8078;47.822;9.402;2023-05-20T03:25:32;9.20;99.90
15959;DHT22;8078;47.822;9.402;2023-05-20T03:27:58;9.20;99.90
15959;DHT22;8078;47.822;9.402;2023-05-20T03:30:24;9.20;99.90
15959;DHT22;8078;47.822;9.402;2023-05-20T03:32:50;9.20;99.90
15959;DHT22;8078;47.822;9.402;2023-05-20T03:35:16;9.30;99.90
15959;DHT22;8078;47.822;9.402;2023-05-20T03:37:41;9.30;99.90
15959;DHT22;8078;47.822;9.402;2023-05-20T03:40:08;9.30;99.90
15959;DHT22;8078;47.822;9.402;2023-05-20T03:42:37;9.30;99.90
15959;DHT22;8078;47.822;9.402;2023-05-20T03:45:03;9.30;99.90
15959;DHT22;8078;47.822;9.402;2023-05-20T03:47:29;9.30;99.90
15959;DHT22;8078;47.822;9.402;2023-05-20T03:49:55;9.30;99.90
15959;DHT22;8078;47.822;9.402;2023-05-20T03:52:21;9.40;99.90
15959;DHT22;8078;47.822;9.402;2023-05-20T03:54:46;9.40;99.90
15959;DHT22;8078;47.822;9.402;2023-05-20T03:57:12;9.40;99.90
15959;DHT22;8078;47.822;9.402;2023-05-20T03:59:38;9.40;99.90
15959;DHT22;8078;47.822;9.402;2023-05-20T04:02:04;9.40;99.90
15959;DHT22;8078;47.822;9.402;2023-05-20T04:04:30;9.40;99.90
15959;DHT22;8078;47.822;9.402;2023-05-20T04:06:57;9.40;99.90
15959;DHT22;8078;47.822;9.402;2023-05-20T04:09:25;9.40;99.90
15959;DHT22;8078;47.822;9.402;2023-05-20T04:11:50;9.40;99.90
15959;DHT22;8078;47.822;9.402;2023-05-20T04:14:16;9.40;99.90
15959;DHT22;8078;47.822;9.402;2023-05-20T04:16:42;9.40;99.90
15959;DHT22;8078;47.822;9.402;2023-05-20T04:19:07;9.40;99.90
15959;DHT22;8078;47.822;9.402;2023-05-20T04:21:33;9.50;99.90
15959;DHT22;8078;47.822;9.402;2023-05-20T04:23:59;9.50;99.90
15959;DHT22;8078;47.822;9.402;2023-05-20T04:26:24;9.50;99.90
15959;DHT22;8078;47.822;9.402;2023-05-20T04:28:50;9.50;99.90
15959;DHT22;8078;47.822;9.402;2023-05-20T04:31:16;9.50;99.90
15959;DHT22;8078;47.822;9.402;2023-05-20T04:33:42;9.60;99.90
15959;DHT22;8078;47.822;9.402;2023-05-20T04:36:09;9.60;99.90
15959;DHT22;8078;47.822;9.402;2023-05-20T04:38:36;9.60;99.90
15959;DHT22;8078;47.822;9.402;2023-05-20T04:41:02;9.70;99.90
15959;DHT22;8078;47.822;9.402;2023-05-20T04:43:29;9.70;99.90
15959;DHT22;8078;47.822;9.402;2023-05-20T04:45:55;9.70;99.90
15959;DHT22;8078;47.822;9.402;2023-05-20T04:48:21;9.70;99.90
15959;DHT22;8078;47.822;9.402;2023-05-20T04:50:47;9.70;99.90
15959;DHT22;8078;47.822;9.402;2023-05-20T04:53:14;9.70;99.90
15959;DHT22;8078;47.822;9.402;2023-05-20T04:55:40;9.70;99.90
15959;DHT22;8078;47.822;9.402;2023-05-20T04:58:07;9.70;99.90
15959;DHT22;8078;47.822;9.402;2023-05-20T05:00:42;9.70;99.90
15959;DHT22;8078;47.822;9.402;2023-05-20T05:03:08;9.70;99.90
15959;DHT22;8078;47.822;9.402;2023-05-20T05:05:34;9.70;99.90
15959;DHT22;8078;47.822;9.402;2023-05-20T05:08:04;9.80;99.90
15959;DHT22;8078;47.822;9.402;2023-05-20T05:10:30;9.80;99.90
15959;DHT22;8078;47.822;9.402;2023-05-20T05:12:56;9.80;99.90
15959;DHT22;8078;47.822;9.402;2023-05-20T05:15:22;9.90;99.90
15959;DHT22;8078;47.822;9.402;2023-05-20T05:17:48;9.90;99.90
15959;DHT22;8078;47.822;9.402;2023-05-20T05:20:13;9.90;99.90
15959;DHT22;8078;47.822;9.402;2023-05-20T05:22:39;9.90;99.90
15959;DHT22;8078;47.822;9.402;2023-05-20T05:25:06;9.90;99.90
15959;DHT22;8078;47.822;9.402;2023-05-20T05:27:33;9.90;99.90
15959;DHT22;8078;47.822;9.402;2023-05-20T05:30:00;10.00;99.90
15959;DHT22;8078;47.822;9.402;2023-05-20T05:32:25;10.00;99.90
15959;DHT22;8078;47.822;9.402;2023-05-20T05:34:51;10.10;99.90
15959;DHT22;8078;47.822;9.402;2023-05-20T05:37:16;10.10;99.90
15959;DHT22;8078;47.822;9.402;2023-05-20T05:39:42;10.10;99.90
15959;DHT22;8078;47.822;9.402;2023-05-20T05:42:07;10.20;99.90
15959;DHT22;8078;47.822;9.402;2023-05-20T05:44:33;10.20;99.90
15959;DHT22;8078;47.822;9.402;2023-05-20T05:46:59;10.30;99.90
15959;DHT22;8078;47.822;9.402;2023-05-20T05:49:24;10.30;99.90
15959;DHT22;8078;47.822;9.402;2023-05-20T05:51:50;10.30;99.90
15959;DHT22;8078;47.822;9.402;2023-05-20T05:54:16;10.30;99.90
15959;DHT22;8078;47.822;9.402;2023-05-20T05:56:41;10.30;99.90
15959;DHT22;8078;47.822;9.402;2023-05-20T05:59:07;10.40;99.90
15959;DHT22;8078;47.822;9.402;2023-05-20T06:01:32;10.40;99.90
15959;DHT22;8078;47.822;9.402;2023-05-20T06:03:58;10.40;99.90
15959;DHT22;8078;47.822;9.402;2023-05-20T06:06:24;10.40;99.90
15959;DHT22;8078;47.822;9.402;2023-05-20T06:08:49;10.40;99.90
15959;DHT22;8078;47.822;9.402;2023-05-20T06:11:15;10.40;99.90
15959;DHT22;8078;47.822;9.402;2023-05-20T06:13:40;10.40;99.90
15959;DHT22;8078;47.822;9.402;2023-05-20T06:16:06;10.40;99.90
15959;DHT22;8078;47.822;9.402;2023-05-20T06:18:32;10.40;99.90
15959;DHT22;8078;47.822;9.402;2023-05-20T06:20:58;10.30;99.90
15959;DHT22;8078;47.822;9.402;2023-05-20T06:23:24;10.40;99.90
15959;DHT22;8078;47.822;9.402;2023-05-20T06:25:50;10.50;99.90
15959;DHT22;8078;47.822;9.402;2023-05-20T06:28:16;10.50;99.90
15959;DHT22;8078;47.822;9.402;2023-05-20T06:30:42;10.50;99.90
15959;DHT22;8078;47.822;9.402;2023-05-20T06:33:07;10.50;99.90
15959;DHT22;8078;47.822;9.402;2023-05-20T06:35:33;10.40;99.90
15959;DHT22;8078;47.822;9.402;2023-05-20T06:37:59;10.50;99.90
15959;DHT22;8078;47.822;9.402;2023-05-20T06:40:26;10.50;99.90
15959;DHT22;8078;47.822;9.402;2023-05-20T06:42:52;10.60;99.90
15959;DHT22;8078;47.822;9.402;2023-05-20T06:45:17;10.60;99.90
15959;DHT22;8078;47.822;9.402;2023-05-20T06:47:43;10.80;99.90
15959;DHT22;8078;47.822;9.402;2023-05-20T06:50:10;10.90;99.90
15959;DHT22;8078;47.822;9.402;2023-05-20T06:52:36;11.00;99.90
15959;DHT22;8078;47.822;9.402;2023-05-20T06:55:02;11.00;99.90
15959;DHT22;8078;47.822;9.402;2023-05-20T06:57:28;11.00;99.90
15959;DHT22;8078;47.822;9.402;2023-05-20T06:59:53;11.10;99.90
15959;DHT22;8078;47.822;9.402;2023-05-20T07:02:20;11.10;99.90
15959;DHT22;8078;47.822;9.402;2023-05-20T07:04:46;11.20;99.90
15959;DHT22;8078;47.822;9.402;2023-05-20T07:07:11;11.30;99.90
15959;DHT22;8078;47.822;9.402;2023-05-20T07:09:37;11.40;99.90
15959;DHT22;8078;47.822;9.402;2023-05-20T07:12:03;11.50;99.90
15959;DHT22;8078;47.822;9.402;2023-05-20T07:14:28;11.50;99.90
15959;DHT22;8078;47.822;9.402;2023-05-20T07:16:54;11.60;99.90
15959;DHT22;8078;47.822;9.402;2023-05-20T07:19:19;11.60;99.90
15959;DHT22;8078;47.822;9.402;2023-05-20T07:21:45;11.50;99.90
15959;DHT22;8078;47.822;9.402;2023-05-20T07:24:10;11.40;99.90
15959;DHT22;8078;47.822;9.402;2023-05-20T07:26:36;11.50;99.90
15959;DHT22;8078;47.822;9.402;2023-05-20T07:29:03;11.40;99.90
15959;DHT22;8078;47.822;9.402;2023-05-20T07:31:28;11.30;99.90
15959;DHT22;8078;47.822;9.402;2023-05-20T07:33:54;11.30;99.90
15959;DHT22;8078;47.822;9.402;2023-05-20T07:36:20;11.30;99.90
15959;DHT22;8078;47.822;9.402;2023-05-20T07:38:46;11.30;99.90
15959;DHT22;8078;47.822;9.402;2023-05-20T07:41:11;11.20;99.90
15959;DHT22;8078;47.822;9.402;2023-05-20T07:43:37;11.20;99.90
15959;DHT22;8078;47.822;9.402;2023-05-20T07:46:02;11.20;99.90
15959;DHT22;8078;47.822;9.402;2023-05-20T07:48:28;11.20;99.90
15959;DHT22;8078;47.822;9.402;2023-05-20T07:50:53;11.20;99.90
15959;DHT22;8078;47.822;9.402;2023-05-20T07:53:21;11.10;99.90
15959;DHT22;8078;47.822;9.402;2023-05-20T07:55:47;11.30;99.90
15959;DHT22;8078;47.822;9.402;2023-05-20T07:58:13;11.30;99.90
15959;DHT22;8078;47.822;9.402;2023-05-20T08:00:38;11.40;99.90
15959;DHT22;8078;47.822;9.402;2023-05-20T08:03:04;11.50;99.90
15959;DHT22;8078;47.822;9.402;2023-05-20T08:05:29;11.50;99.90
15959;DHT22;8078;47.822;9.402;2023-05-20T08:07:56;11.60;99.90
15959;DHT22;8078;47.822;9.402;2023-05-20T08:10:22;11.70;99.90
15959;DHT22;8078;47.822;9.402;2023-05-20T08:12:47;11.70;99.90
15959;DHT22;8078;47.822;9.402;2023-05-20T08:15:13;11.60;99.90
15959;DHT22;8078;47.822;9.402;2023-05-20T08:17:38;11.60;99.90
15959;DHT22;8078;47.822;9.402;2023-05-20T08:20:04;11.70;99.90
15959;DHT22;8078;47.822;9.402;2023-05-20T08:22:30;11.60;99.90
15959;DHT22;8078;47.822;9.402;2023-05-20T08:24:55;11.60;99.90
15959;DHT22;8078;47.822;9.402;2023-05-20T08:27:21;11.60;99.90
15959;DHT22;8078;47.822;9.402;2023-05-20T08:29:47;11.60;99.90
15959;DHT22;8078;47.822;9.402;2023-05-20T08:32:12;11.60;99.90
15959;DHT22;8078;47.822;9.402;2023-05-20T08:34:38;11.60;99.90
15959;DHT22;8078;47.822;9.402;2023-05-20T08:37:04;11.60;99.90
15959;DHT22;8078;47.822;9.402;2023-05-20T08:39:29;11.60;99.90
15959;DHT22;8078;47.822;9.402;2023-05-20T08:41:56;11.70;99.90
15959;DHT22;8078;47.822;9.402;2023-05-20T08:44:23;11.80;99.90
15959;DHT22;8078;47.822;9.402;2023-05-20T08:46:51;12.00;99.90
15959;DHT22;8078;47.822;9.402;2023-05-20T08:49:16;12.00;99.90
15959;DHT22;8078;47.822;9.402;2023-05-20T08:51:42;12.00;99.90
15959;DHT22;8078;47.822;9.402;2023-05-20T08:54:08;11.90;99.90
15959;DHT22;8078;47.822;9.402;2023-05-20T08:56:34;12.00;99.90
15959;DHT22;8078;47.822;9.402;2023-05-20T08:59:01;12.10;99.90
15959;DHT22;8078;47.822;9.402;2023-05-20T09:01:27;12.10;99.90
15959;DHT22;8078;47.822;9.402;2023-05-20T09:03:53;12.10;99.90
15959;DHT22;8078;47.822;9.402;2023-05-20T09:06:18;12.10;99.90
15959;DHT22;8078;47.822;9.402;2023-05-20T09:08:44;12.40;99.90
15959;DHT22;8078;47.822;9.402;2023-05-20T09:11:11;12.60;99.90
15959;DHT22;8078;47.822;9.402;2023-05-20T09:13:37;12.60;99.90
15959;DHT22;8078;47.822;9.402;2023-05-20T09:16:02;12.80;99.90
15959;DHT22;8078;47.822;9.402;2023-05-20T09:18:28;12.90;99.90
15959;DHT22;8078;47.822;9.402;2023-05-20T09:20:54;13.10;99.90
15959;DHT22;8078;47.822;9.402;2023-05-20T09:23:20;13.20;99.90
15959;DHT22;8078;47.822;9.402;2023-05-20T09:25:52;13.20;99.90
15959;DHT22;8078;47.822;9.402;2023-05-20T09:28:22;13.20;99.90
15959;DHT22;8078;47.822;9.402;2023-05-20T09:30:57;13.10;99.90
15959;DHT22;8078;47.822;9.402;2023-05-20T09:33:29;13.10;99.90
15959;DHT22;8078;47.822;9.402;2023-05-20T09:36:03;13.10;99.90
15959;DHT22;8078;47.822;9.402;2023-05-20T09:38:30;13.20;99.90
15959;DHT22;8078;47.822;9.402;2023-05-20T09:41:09;13.00;99.90
15959;DHT22;8078;47.822;9.402;2023-05-20T09:43:36;12.90;99.90
15959;DHT22;8078;47.822;9.402;2023-05-20T09:46:03;13.00;99.90
15959;DHT22;8078;47.822;9.402;2023-05-20T09:48:29;13.00;99.90
15959;DHT22;8078;47.822;9.402;2023-05-20T09:50:56;13.10;99.90
15959;DHT22;8078;47.822;9.402;2023-05-20T09:53:25;13.00;99.90
15959;DHT22;8078;47.822;9.402;2023-05-20T09:55:51;13.00;99.90
15959;DHT22;8078;47.822;9.402;2023-05-20T09:58:19;13.10;99.90
15959;DHT22;8078;47.822;9.402;2023-05-20T10:00:45;13.20;99.90
15959;DHT22;8078;47.822;9.402;2023-05-20T10:03:11;13.20;99.90
15959;DHT22;8078;47.822;9.402;2023-05-20T10:05:41;13.10;99.90
15959;DHT22;8078;47.822;9.402;2023-05-20T10:10:55;12.70;99.90
15959;DHT22;8078;47.822;9.402;2023-05-20T10:13:59;12.80;99.90
15959;DHT22;8078;47.822;9.402;2023-05-20T10:16:45;13.30;99.90
15959;DHT22;8078;47.822;9.402;2023-05-20T10:21:57;14.20;99.90
15959;DHT22;8078;47.822;9.402;2023-05-20T10:24:38;14.50;99.90
15959;DHT22;8078;47.822;9.402;2023-05-20T10:27:11;14.50;99.90
15959;DHT22;8078;47.822;9.402;2023-05-20T10:29:42;14.60;99.90
15959;DHT22;8078;47.822;9.402;2023-05-20T10:32:29;14.40;99.90
15959;DHT22;8078;47.822;9.402;2023-05-20T10:35:03;14.50;99.90
15959;DHT22;8078;47.822;9.402;2023-05-20T10:37:31;14.30;99.90
15959;DHT22;8078;47.822;9.402;2023-05-20T10:42:32;14.60;99.90
15959;DHT22;8078;47.822;9.402;2023-05-20T10:44:58;14.70;99.90
15959;DHT22;8078;47.822;9.402;2023-05-20T10:47:23;14.70;99.90
15959;DHT22;8078;47.822;9.402;2023-05-20T10:49:49;15.10;99.90
15959;DHT22;8078;47.822;9.402;2023-05-20T10:52:18;15.20;99.90
15959;DHT22;8078;47.822;9.402;2023-05-20T10:54:53;15.70;99.90
15959;DHT22;8078;47.822;9.402;2023-05-20T10:57:20;16.10;99.90
15959;DHT22;8078;47.822;9.402;2023-05-20T10:59:46;16.50;99.90
15959;DHT22;8078;47.822;9.402;2023-05-20T11:02:14;15.90;99.90
15959;DHT22;8078;47.822;9.402;2023-05-20T11:04:44;15.70;99.90
15959;DHT22;8078;47.822;9.402;2023-05-20T11:07:09;15.50;99.90
15959;DHT22;8078;47.822;9.402;2023-05-20T11:09:35;15.50;99.90
15959;DHT22;8078;47.822;9.402;2023-05-20T11:12:01;15.90;99.90
15959;DHT22;8078;47.822;9.402;2023-05-20T11:14:28;16.20;99.90
15959;DHT22;8078;47.822;9.402;2023-05-20T11:16:59;16.10;99.90
15959;DHT22;8078;47.822;9.402;2023-05-20T11:19:26;16.00;99.90
15959;DHT22;8078;47.822;9.402;2023-05-20T11:21:52;15.80;99.90
15959;DHT22;8078;47.822;9.402;2023-05-20T11:24:25;15.60;99.90
15959;DHT22;8078;47.822;9.402;2023-05-20T11:26:52;15.80;99.90
15959;DHT22;8078;47.822;9.402;2023-05-20T11:29:18;15.80;99.90
15959;DHT22;8078;47.822;9.402;2023-05-20T11:31:44;15.90;99.90
15959;DHT22;8078;47.822;9.402;2023-05-20T11:34:10;16.00;99.90
15959;DHT22;8078;47.822;9.402;2023-05-20T11:36:41;16.30;99.90
15959;DHT22;8078;47.822;9.402;2023-05-20T11:39:09;16.40;99.90
15959;DHT22;8078;47.822;9.402;2023-05-20T11:41:34;16.40;99.90
15959;DHT22;8078;47.822;9.402;2023-05-20T11:44:00;16.20;99.90
15959;DHT22;8078;47.822;9.402;2023-05-20T11:46:26;16.40;99.90
15959;DHT22;8078;47.822;9.402;2023-05-20T11:48:56;16.40;99.90
15959;DHT22;8078;47.822;9.402;2023-05-20T11:51:28;17.20;99.90
15959;DHT22;8078;47.822;9.402;2023-05-20T11:54:03;17.60;99.90
15959;DHT22;8078;47.822;9.402;2023-05-20T11:56:31;18.00;99.90
15959;DHT22;8078;47.822;9.402;2023-05-20T11:58:59;17.80;99.90
15959;DHT22;8078;47.822;9.402;2023-05-20T12:01:25;17.20;99.90
15959;DHT22;8078;47.822;9.402;2023-05-20T12:03:52;17.00;99.90
15959;DHT22;8078;47.822;9.402;2023-05-20T12:06:18;16.80;99.90
15959;DHT22;8078;47.822;9.402;2023-05-20T12:08:44;16.50;99.90
15959;DHT22;8078;47.822;9.402;2023-05-20T12:11:10;16.40;99.90
15959;DHT22;8078;47.822;9.402;2023-05-20T12:13:36;16.80;99.90
15959;DHT22;8078;47.822;9.402;2023-05-20T12:16:02;17.10;99.90
15959;DHT22;8078;47.822;9.402;2023-05-20T12:18:30;17.50;99.90
15959;DHT22;8078;47.822;9.402;2023-05-20T12:20:56;18.10;99.90
15959;DHT22;8078;47.822;9.402;2023-05-20T12:23:21;18.60;99.90
15959;DHT22;8078;47.822;9.402;2023-05-20T12:28:14;18.80;99.90
15959;DHT22;8078;47.822;9.402;2023-05-20T12:30:40;18.80;99.90
15959;DHT22;8078;47.822;9.402;2023-05-20T12:33:06;18.50;99.90
15959;DHT22;8078;47.822;9.402;2023-05-20T12:35:39;18.40;99.90
15959;DHT22;8078;47.822;9.402;2023-05-20T12:38:06;18.00;99.90
15959;DHT22;8078;47.822;9.402;2023-05-20T12:40:32;17.80;99.90
15959;DHT22;8078;47.822;9.402;2023-05-20T12:43:00;17.80;99.90
15959;DHT22;8078;47.822;9.402;2023-05-20T12:45:25;17.80;99.90
15959;DHT22;8078;47.822;9.402;2023-05-20T12:47:51;18.50;99.90
15959;DHT22;8078;47.822;9.402;2023-05-20T12:50:17;18.40;99.90
15959;DHT22;8078;47.822;9.402;2023-05-20T12:52:42;18.40;99.90
15959;DHT22;8078;47.822;9.402;2023-05-20T12:55:08;18.50;99.90
15959;DHT22;8078;47.822;9.402;2023-05-20T12:57:42;18.70;99.90
15959;DHT22;8078;47.822;9.402;2023-05-20T13:00:09;18.60;99.90
15959;DHT22;8078;47.822;9.402;2023-05-20T13:02:36;18.30;99.90
15959;DHT22;8078;47.822;9.402;2023-05-20T13:05:01;18.10;99.90
15959;DHT22;8078;47.822;9.402;2023-05-20T13:07:27;18.40;99.90
15959;DHT22;8078;47.822;9.402;2023-05-20T13:09:53;18.90;99.90
15959;DHT22;8078;47.822;9.402;2023-05-20T13:14:45;19.60;99.90
15959;DHT22;8078;47.822;9.402;2023-05-20T13:17:11;19.20;99.90
15959;DHT22;8078;47.822;9.402;2023-05-20T13:19:37;18.90;99.90
15959;DHT22;8078;47.822;9.402;2023-05-20T13:22:03;18.30;99.90
15959;DHT22;8078;47.822;9.402;2023-05-20T13:24:29;17.50;99.90
15959;DHT22;8078;47.822;9.402;2023-05-20T13:26:54;17.70;99.90
15959;DHT22;8078;47.822;9.402;2023-05-20T13:29:20;17.80;99.90
15959;DHT22;8078;47.822;9.402;2023-05-20T13:31:46;18.10;99.90
15959;DHT22;8078;47.822;9.402;2023-05-20T13:34:12;18.30;99.90
15959;DHT22;8078;47.822;9.402;2023-05-20T13:36:38;18.70;99.90
15959;DHT22;8078;47.822;9.402;2023-05-20T13:39:03;19.40;99.90
15959;DHT22;8078;47.822;9.402;2023-05-20T13:41:29;19.40;99.90
15959;DHT22;8078;47.822;9.402;2023-05-20T13:43:55;19.70;99.90
15959;DHT22;8078;47.822;9.402;2023-05-20T13:46:20;19.90;99.90
15959;DHT22;8078;47.822;9.402;2023-05-20T13:51:12;20.60;99.90
15959;DHT22;8078;47.822;9.402;2023-05-20T13:53:38;20.10;99.90
15959;DHT22;8078;47.822;9.402;2023-05-20T13:56:04;19.70;99.90
15959;DHT22;8078;47.822;9.402;2023-05-20T13:58:30;19.40;99.90
15959;DHT22;8078;47.822;9.402;2023-05-20T14:00:55;19.70;99.90
15959;DHT22;8078;47.822;9.402;2023-05-20T14:03:21;20.10;99.90
15959;DHT22;8078;47.822;9.402;2023-05-20T14:05:47;20.50;99.90
15959;DHT22;8078;47.822;9.402;2023-05-20T14:08:12;20.40;99.90
15959;DHT22;8078;47.822;9.402;2023-05-20T14:10:38;20.10;99.90
15959;DHT22;8078;47.822;9.402;2023-05-20T14:13:04;20.30;99.90
15959;DHT22;8078;47.822;9.402;2023-05-20T14:15:30;20.00;99.90
15959;DHT22;8078;47.822;9.402;2023-05-20T14:17:58;19.70;99.90
15959;DHT22;8078;47.822;9.402;2023-05-20T14:20:24;19.70;99.90
15959;DHT22;8078;47.822;9.402;2023-05-20T14:22:53;19.50;99.90
15959;DHT22;8078;47.822;9.402;2023-05-20T14:25:19;19.70;99.90
15959;DHT22;8078;47.822;9.402;2023-05-20T14:27:44;20.40;99.90
15959;DHT22;8078;47.822;9.402;2023-05-20T14:30:10;20.50;99.90
15959;DHT22;8078;47.822;9.402;2023-05-20T14:32:36;20.60;99.90
15959;DHT22;8078;47.822;9.402;2023-05-20T14:35:02;20.90;99.90
15959;DHT22;8078;47.822;9.402;2023-05-20T14:37:28;20.90;99.90
15959;DHT22;8078;47.822;9.402;2023-05-20T14:39:54;20.80;99.90
15959;DHT22;8078;47.822;9.402;2023-05-20T14:42:20;20.80;99.90
15959;DHT22;8078;47.822;9.402;2023-05-20T14:44:45;20.70;99.90
15959;DHT22;8078;47.822;9.402;2023-05-20T14:47:11;20.70;99.90
15959;DHT22;8078;47.822;9.402;2023-05-20T14:49:41;21.10;99.90
15959;DHT22;8078;47.822;9.402;2023-05-20T14:54:32;21.40;99.90
15959;DHT22;8078;47.822;9.402;2023-05-20T14:56:58;21.10;99.90
15959;DHT22;8078;47.822;9.402;2023-05-20T14:59:23;21.20;99.90
15959;DHT22;8078;47.822;9.402;2023-05-20T15:01:49;21.00;99.90
15959;DHT22;8078;47.822;9.402;2023-05-20T15:04:15;21.10;99.90
15959;DHT22;8078;47.822;9.402;2023-05-20T15:06:40;20.90;99.90
15959;DHT22;8078;47.822;9.402;2023-05-20T15:09:06;20.90;99.90
15959;DHT22;8078;47.822;9.402;2023-05-20T15:11:31;20.80;99.90
15959;DHT22;8078;47.822;9.402;2023-05-20T15:13:57;20.40;99.90
15959;DHT22;8078;47.822;9.402;2023-05-20T15:16:23;20.50;99.90
15959;DHT22;8078;47.822;9.402;2023-05-20T15:18:52;20.70;99.90
15959;DHT22;8078;47.822;9.402;2023-05-20T15:21:18;20.60;99.90
15959;DHT22;8078;47.822;9.402;2023-05-20T15:23:43;20.30;99.90
15959;DHT22;8078;47.822;9.402;2023-05-20T15:26:09;20.30;99.90
15959;DHT22;8078;47.822;9.402;2023-05-20T15:28:38;20.50;99.90
15959;DHT22;8078;47.822;9.402;2023-05-20T15:31:04;20.50;99.90
15959;DHT22;8078;47.822;9.402;2023-05-20T15:33:30;20.40;99.90
15959;DHT22;8078;47.822;9.402;2023-05-20T15:35:55;20.40;99.90
15959;DHT22;8078;47.822;9.402;2023-05-20T15:38:21;20.20;99.90
15959;DHT22;8078;47.822;9.402;2023-05-20T15:40:46;20.00;99.90
15959;DHT22;8078;47.822;9.402;2023-05-20T15:43:15;20.20;99.90
15959;DHT22;8078;47.822;9.402;2023-05-20T15:45:40;20.20;99.90
15959;DHT22;8078;47.822;9.402;2023-05-20T15:48:06;19.90;99.90
15959;DHT22;8078;47.822;9.402;2023-05-20T15:50:34;19.60;99.90
15959;DHT22;8078;47.822;9.402;2023-05-20T15:53:00;19.70;99.90
15959;DHT22;8078;47.822;9.402;2023-05-20T15:55:26;19.90;99.90
15959;DHT22;8078;47.822;9.402;2023-05-20T15:57:51;20.10;99.90
15959;DHT22;8078;47.822;9.402;2023-05-20T16:00:18;19.80;99.90
15959;DHT22;8078;47.822;9.402;2023-05-20T16:02:44;19.70;99.90
15959;DHT22;8078;47.822;9.402;2023-05-20T16:05:10;19.40;99.90